Time;durP1;ratioP1;P1;durP2;ratioP2;P2;SDS_P1;SDS_P2;PMS_P1;PMS_P2;Temp;Humidity;BMP_temperature;BMP_pressure;BME280_temperature;BME280_humidity;BME280_pressure;Samples;Min_cycle;Max_cycle;Signal;HPM_P1;HPM_P2
2023/01/04 00:00:30;;;;;;;;;;;15.60;53.40;;;;;;5074273;28;20379;-71
2023/01/04 00:02:56;;;;;;;;;;;15.60;53.30;;;;;;5074129;28;19920;-72
2023/01/04 00:05:21;;;;;;;;;;;15.60;53.30;;;;;;5095141;28;20273;-72
2023/01/04 00:07:47;;;;;;;;;;;15.50;53.20;;;;;;5077972;28;19927;-71
2023/01/04 00:10:12;;;;;;;;;;;15.60;53.30;;;;;;5077581;28;19920;-65
2023/01/04 00:12:38;;;;;;;;;;;15.60;53.30;;;;;;5095689;28;19927;-66
2023/01/04 00:15:04;;;;;;;;;;;15.60;53.20;;;;;;5077818;28;19920;-66
2023/01/04 00:17:29;;;;;;;;;;;15.60;53.30;;;;;;5095045;28;19977;-65
2023/01/04 00:19:55;;;;;;;;;;;15.60;53.30;;;;;;5077351;28;19955;-65
2023/01/04 00:22:20;;;;;;;;;;;15.60;53.30;;;;;;5077589;28;19975;-65
2023/01/04 00:24:46;;;;;;;;;;;15.60;53.40;;;;;;5077330;28;20010;-72
2023/01/04 00:27:11;;;;;;;;;;;15.60;53.40;;;;;;5095356;28;19982;-65
2023/01/04 00:29:37;;;;;;;;;;;15.60;53.40;;;;;;5095481;28;20599;-71
2023/01/04 00:32:03;;;;;;;;;;;15.60;53.40;;;;;;5077517;28;20393;-65
2023/01/04 00:34:28;;;;;;;;;;;15.50;53.40;;;;;;5077356;28;19919;-72
2023/01/04 00:36:53;;;;;;;;;;;15.50;53.40;;;;;;5095084;28;19978;-66
2023/01/04 00:39:19;;;;;;;;;;;15.50;53.40;;;;;;5095158;28;20051;-71
2023/01/04 00:41:46;;;;;;;;;;;15.50;53.50;;;;;;5077458;28;20375;-66
2023/01/04 00:44:12;;;;;;;;;;;15.50;53.50;;;;;;5076963;28;20407;-66
2023/01/04 00:46:38;;;;;;;;;;;15.50;53.50;;;;;;5077268;28;19926;-71
2023/01/04 00:49:04;;;;;;;;;;;15.50;53.60;;;;;;5094933;28;20392;-66
2023/01/04 00:51:30;;;;;;;;;;;15.50;53.60;;;;;;5077164;28;20654;-68
2023/01/04 00:53:56;;;;;;;;;;;15.50;53.60;;;;;;5094910;28;19920;-71
2023/01/04 00:56:22;;;;;;;;;;;15.50;53.60;;;;;;5094988;28;19931;-65
2023/01/04 00:58:47;;;;;;;;;;;15.50;53.60;;;;;;5076595;28;19924;-66
2023/01/04 01:01:13;;;;;;;;;;;15.50;53.70;;;;;;5094791;28;20052;-65
2023/01/04 01:03:38;;;;;;;;;;;15.50;53.70;;;;;;5076485;28;20005;-65
2023/01/04 01:06:06;;;;;;;;;;;15.50;53.70;;;;;;5094665;28;20054;-72
2023/01/04 01:08:32;;;;;;;;;;;15.50;53.70;;;;;;5094627;28;19924;-71
2023/01/04 01:11:03;;;;;;;;;;;15.50;53.80;;;;;;5076510;28;19943;-65
2023/01/04 01:13:28;;;;;;;;;;;15.50;53.90;;;;;;5094563;28;19920;-71
2023/01/04 01:16:05;;;;;;;;;;;15.50;53.90;;;;;;5093957;28;20326;-71
2023/01/04 01:18:32;;;;;;;;;;;15.40;53.80;;;;;;5093913;28;19924;-71
2023/01/04 01:20:57;;;;;;;;;;;15.40;53.90;;;;;;5094281;28;19942;-72
2023/01/04 01:23:23;;;;;;;;;;;15.40;53.90;;;;;;5076466;28;19920;-65
2023/01/04 01:25:48;;;;;;;;;;;15.40;54.00;;;;;;5075976;28;19920;-71
2023/01/04 01:28:14;;;;;;;;;;;15.40;54.00;;;;;;5075991;28;19965;-71
2023/01/04 01:30:40;;;;;;;;;;;15.40;54.00;;;;;;5093976;28;19967;-71
2023/01/04 01:33:06;;;;;;;;;;;15.40;54.10;;;;;;5076121;28;19927;-71
2023/01/04 01:35:33;;;;;;;;;;;15.40;54.20;;;;;;5075642;28;19920;-64
2023/01/04 01:37:58;;;;;;;;;;;15.40;54.20;;;;;;5094029;28;20282;-71
2023/01/04 01:40:24;;;;;;;;;;;15.40;54.20;;;;;;5075761;28;19920;-65
2023/01/04 01:42:49;;;;;;;;;;;15.30;54.20;;;;;;5076192;28;19920;-70
2023/01/04 01:45:32;;;;;;;;;;;15.30;54.30;;;;;;5075895;28;19927;-70
2023/01/04 01:48:00;;;;;;;;;;;15.40;54.30;;;;;;5075869;28;19967;-64
2023/01/04 01:50:30;;;;;;;;;;;15.40;54.30;;;;;;5093876;28;20336;-69
2023/01/04 01:52:58;;;;;;;;;;;15.40;54.30;;;;;;5093510;28;19969;-65
2023/01/04 01:55:23;;;;;;;;;;;15.40;54.40;;;;;;5075485;28;19920;-65
2023/01/04 01:57:49;;;;;;;;;;;15.40;54.40;;;;;;5075438;28;19931;-70
2023/01/04 02:00:15;;;;;;;;;;;15.40;54.40;;;;;;5093299;28;19920;-71
2023/01/04 02:02:43;;;;;;;;;;;15.40;54.40;;;;;;5075628;28;19967;-64
2023/01/04 02:05:09;;;;;;;;;;;15.30;54.40;;;;;;5093413;28;19924;-71
2023/01/04 02:07:36;;;;;;;;;;;15.30;54.50;;;;;;5093377;28;19942;-64
2023/01/04 02:10:01;;;;;;;;;;;15.30;54.50;;;;;;5075569;28;20014;-71
2023/01/04 02:12:27;;;;;;;;;;;15.30;54.50;;;;;;5074861;28;20020;-64
2023/01/04 02:14:52;;;;;;;;;;;15.30;54.60;;;;;;5074950;28;19920;-65
2023/01/04 02:17:38;;;;;;;;;;;15.30;54.60;;;;;;5092683;28;20027;-64
2023/01/04 02:23:07;;;;;;;;;;;15.30;54.70;;;;;;5089286;28;19913;-64
2023/01/04 02:25:52;;;;;;;;;;;15.30;54.70;;;;;;5088586;28;19927;-64
2023/01/04 02:31:17;;;;;;;;;;;15.30;54.80;;;;;;5131514;27;1862971;-64
2023/01/04 02:36:45;;;;;;;;;;;15.30;54.90;;;;;;5089414;28;19919;-65
2023/01/04 02:39:19;;;;;;;;;;;15.20;54.80;;;;;;5088160;28;19960;-65
2023/01/04 02:41:52;;;;;;;;;;;15.30;55.00;;;;;;5088768;28;19939;-65
2023/01/04 02:44:56;;;;;;;;;;;15.30;55.10;;;;;;5088452;28;19927;-65
2023/01/04 02:47:13;;;;;;;;;;;15.20;55.00;;;;;;5089566;28;20012;-70
2023/01/04 02:52:24;;;;;;;;;;;15.30;55.10;;;;;;5087782;28;19917;-64
2023/01/04 02:54:51;;;;;;;;;;;15.20;55.10;;;;;;5088313;28;19970;-71
2023/01/04 02:57:30;;;;;;;;;;;15.30;55.20;;;;;;5089605;28;19927;-64
2023/01/04 03:06:21;;;;;;;;;;;15.30;55.30;;;;;;5174133;27;19926;-70
2023/01/04 03:09:06;;;;;;;;;;;15.20;55.30;;;;;;5174456;27;19915;-65
2023/01/04 03:14:25;;;;;;;;;;;15.20;55.40;;;;;;5192723;27;19919;-64
2023/01/04 03:16:51;;;;;;;;;;;15.20;55.50;;;;;;5174255;27;20369;-65
2023/01/04 03:22:05;;;;;;;;;;;15.20;55.50;;;;;;5174031;27;19970;-71
2023/01/04 03:35:44;;;;;;;;;;;15.20;56.00;;;;;;5174076;27;19919;-71
2023/01/04 03:49:32;;;;;;;;;;;15.00;56.50;;;;;;5192105;27;19966;-65
2023/01/04 03:52:01;;;;;;;;;;;15.00;56.60;;;;;;5192271;27;20519;-71
2023/01/04 03:54:43;;;;;;;;;;;15.00;56.70;;;;;;5173485;27;20017;-65
2023/01/04 03:57:10;;;;;;;;;;;15.00;56.80;;;;;;5192428;27;19918;-65
2023/01/04 03:59:38;;;;;;;;;;;15.00;56.90;;;;;;5192229;27;19923;-65
2023/01/04 04:02:07;;;;;;;;;;;15.00;57.00;;;;;;5191826;27;20412;-65
2023/01/04 04:10:03;;;;;;;;;;;14.90;57.10;;;;;;5191695;27;19919;-72
2023/01/04 04:12:29;;;;;;;;;;;14.90;57.20;;;;;;5186831;27;20401;-72
2023/01/04 04:14:54;;;;;;;;;;;14.90;57.20;;;;;;5159403;27;19922;-66
2023/01/04 04:17:20;;;;;;;;;;;14.90;57.30;;;;;;5159005;27;19929;-73
2023/01/04 04:19:45;;;;;;;;;;;14.90;57.30;;;;;;5159061;27;19926;-67
2023/01/04 04:22:11;;;;;;;;;;;14.90;57.40;;;;;;5177698;27;19923;-66
2023/01/04 04:24:36;;;;;;;;;;;14.90;57.50;;;;;;5159041;27;19919;-67
2023/01/04 04:27:02;;;;;;;;;;;14.90;57.50;;;;;;5177693;27;19918;-73
2023/01/04 04:29:27;;;;;;;;;;;14.90;57.50;;;;;;5158995;27;19961;-67
2023/01/04 04:31:53;;;;;;;;;;;14.90;57.60;;;;;;5158761;27;19919;-73
2023/01/04 04:34:18;;;;;;;;;;;14.90;57.60;;;;;;5159122;27;19918;-73
2023/01/04 04:36:44;;;;;;;;;;;14.90;57.70;;;;;;5177575;27;20018;-67
2023/01/04 04:39:10;;;;;;;;;;;14.90;57.80;;;;;;5159084;27;19958;-73
2023/01/04 04:41:38;;;;;;;;;;;14.90;57.80;;;;;;5177349;27;19971;-67
2023/01/04 04:44:04;;;;;;;;;;;14.90;57.90;;;;;;5158911;27;19919;-67
2023/01/04 04:46:30;;;;;;;;;;;14.90;57.90;;;;;;5177183;27;19919;-66
2023/01/04 04:48:56;;;;;;;;;;;14.90;57.90;;;;;;5158838;27;19926;-67
2023/01/04 04:51:21;;;;;;;;;;;14.90;58.00;;;;;;5177141;27;20274;-67
2023/01/04 04:53:47;;;;;;;;;;;14.90;58.00;;;;;;5177158;27;19919;-73
2023/01/04 04:56:12;;;;;;;;;;;14.90;58.00;;;;;;5158647;27;19919;-66
2023/01/04 04:58:38;;;;;;;;;;;14.90;58.20;;;;;;5177121;27;20312;-66
2023/01/04 05:01:04;;;;;;;;;;;14.80;58.10;;;;;;5176439;27;19929;-73
2023/01/04 05:03:29;;;;;;;;;;;14.90;58.20;;;;;;5177131;27;19926;-67
2023/01/04 05:05:55;;;;;;;;;;;14.90;58.30;;;;;;5158555;27;20277;-66
2023/01/04 05:08:20;;;;;;;;;;;14.90;58.30;;;;;;5177029;27;20396;-67
2023/01/04 05:10:46;;;;;;;;;;;14.80;58.30;;;;;;5158490;27;20385;-72
2023/01/04 05:13:12;;;;;;;;;;;14.90;58.30;;;;;;5176747;27;19919;-67
2023/01/04 05:15:38;;;;;;;;;;;14.90;58.30;;;;;;5176726;27;20010;-66
2023/01/04 05:18:05;;;;;;;;;;;14.80;58.30;;;;;;5158098;27;19926;-73
2023/01/04 05:20:30;;;;;;;;;;;14.90;58.40;;;;;;5176499;27;20369;-67
2023/01/04 05:22:56;;;;;;;;;;;14.80;58.40;;;;;;5158146;27;19941;-67
2023/01/04 05:25:22;;;;;;;;;;;14.90;58.50;;;;;;5175589;27;19919;-67
2023/01/04 05:27:47;;;;;;;;;;;14.90;58.50;;;;;;5157693;27;19918;-67
2023/01/04 05:33:00;;;;;;;;;;;14.90;58.60;;;;;;5157750;27;19941;-67
2023/01/04 05:35:25;;;;;;;;;;;14.90;58.90;;;;;;5157722;27;20377;-67
2023/01/04 05:37:51;;;;;;;;;;;14.90;58.60;;;;;;5157856;27;19918;-73
2023/01/04 05:40:16;;;;;;;;;;;14.80;58.60;;;;;;5157699;27;19919;-67
2023/01/04 05:42:42;;;;;;;;;;;14.80;58.80;;;;;;5157500;27;19918;-73
2023/01/04 05:45:08;;;;;;;;;;;14.80;58.70;;;;;;5157691;27;19926;-67
2023/01/04 05:47:36;;;;;;;;;;;14.90;58.80;;;;;;5157352;27;20060;-73
2023/01/04 05:50:03;;;;;;;;;;;14.80;58.80;;;;;;5157676;27;19919;-67
2023/01/04 05:52:28;;;;;;;;;;;14.90;58.90;;;;;;5157603;27;19965;-73
2023/01/04 05:54:54;;;;;;;;;;;14.80;58.80;;;;;;5176009;27;20442;-67
2023/01/04 05:57:19;;;;;;;;;;;14.80;58.90;;;;;;5157440;27;19918;-67
2023/01/04 05:59:45;;;;;;;;;;;14.80;58.90;;;;;;5157331;27;19927;-73
2023/01/04 06:02:13;;;;;;;;;;;14.80;59.00;;;;;;5175349;27;19923;-73
2023/01/04 06:04:38;;;;;;;;;;;14.90;59.20;;;;;;5175876;27;19992;-68
2023/01/04 06:07:04;;;;;;;;;;;14.80;59.10;;;;;;5157264;27;20390;-73
2023/01/04 06:09:29;;;;;;;;;;;14.80;59.10;;;;;;5156944;27;19918;-67
2023/01/04 06:11:56;;;;;;;;;;;14.80;59.10;;;;;;5156851;27;19996;-73
2023/01/04 06:14:22;;;;;;;;;;;14.80;59.20;;;;;;5156854;27;20005;-73
2023/01/04 06:16:47;;;;;;;;;;;14.80;59.20;;;;;;5156679;27;20006;-73
2023/01/04 06:19:13;;;;;;;;;;;14.80;59.20;;;;;;5157036;27;20017;-73
2023/01/04 06:21:38;;;;;;;;;;;14.90;59.40;;;;;;5145616;27;20344;-66
2023/01/04 06:24:04;;;;;;;;;;;14.80;59.40;;;;;;5154622;27;20002;-73
2023/01/04 06:26:29;;;;;;;;;;;14.90;59.50;;;;;;5136168;27;19919;-66
2023/01/04 06:28:55;;;;;;;;;;;14.80;59.40;;;;;;5154354;27;20013;-73
2023/01/04 06:31:20;;;;;;;;;;;14.90;59.50;;;;;;5136172;27;19919;-67
2023/01/04 06:33:46;;;;;;;;;;;14.80;59.40;;;;;;5135805;27;19919;-67
2023/01/04 06:36:11;;;;;;;;;;;14.80;59.40;;;;;;5135772;27;19927;-67
2023/01/04 06:38:37;;;;;;;;;;;14.80;59.40;;;;;;5135714;27;20013;-66
2023/01/04 06:41:03;;;;;;;;;;;14.80;59.40;;;;;;5135583;27;19927;-73
2023/01/04 06:43:28;;;;;;;;;;;14.80;59.50;;;;;;5135749;27;19968;-67
2023/01/04 06:45:54;;;;;;;;;;;14.80;59.60;;;;;;5154211;27;19926;-67
2023/01/04 06:48:19;;;;;;;;;;;14.80;59.60;;;;;;5153420;27;19926;-67
2023/01/04 06:50:45;;;;;;;;;;;14.80;59.70;;;;;;5135864;27;20017;-73
2023/01/04 06:53:10;;;;;;;;;;;14.80;59.80;;;;;;5154299;27;20397;-66
2023/01/04 06:55:36;;;;;;;;;;;14.80;59.80;;;;;;5135506;27;20405;-72
2023/01/04 06:58:01;;;;;;;;;;;14.80;59.80;;;;;;5154111;27;19926;-66
2023/01/04 07:00:28;;;;;;;;;;;14.80;59.80;;;;;;5153834;27;19919;-66
2023/01/04 07:02:53;;;;;;;;;;;14.80;59.90;;;;;;5135195;27;19923;-66
2023/01/04 07:05:19;;;;;;;;;;;14.80;60.00;;;;;;5135656;27;19919;-66
2023/01/04 07:07:44;;;;;;;;;;;14.80;60.00;;;;;;5154059;27;20398;-66
2023/01/04 07:10:10;;;;;;;;;;;14.80;60.00;;;;;;5154099;27;19919;-66
2023/01/04 07:12:36;;;;;;;;;;;14.80;60.00;;;;;;5135305;27;20021;-66
2023/01/04 07:15:02;;;;;;;;;;;14.80;60.00;;;;;;5153938;27;19976;-66
2023/01/04 07:17:27;;;;;;;;;;;14.80;60.10;;;;;;5135210;27;19982;-67
2023/01/04 07:19:53;;;;;;;;;;;14.80;60.10;;;;;;5153518;27;20354;-67
2023/01/04 07:22:18;;;;;;;;;;;14.80;60.10;;;;;;5153629;27;20005;-72
2023/01/04 07:24:44;;;;;;;;;;;14.80;60.20;;;;;;5135268;27;20022;-73
2023/01/04 07:27:10;;;;;;;;;;;14.80;60.20;;;;;;5135508;27;19915;-67
2023/01/04 07:29:35;;;;;;;;;;;14.80;60.20;;;;;;5135198;27;19919;-67
2023/01/04 07:32:01;;;;;;;;;;;14.80;60.30;;;;;;5135021;27;19965;-67
2023/01/04 07:34:27;;;;;;;;;;;14.80;60.30;;;;;;5153494;27;19915;-73
2023/01/04 07:36:53;;;;;;;;;;;14.80;60.30;;;;;;5134744;27;20376;-72
2023/01/04 07:39:19;;;;;;;;;;;14.80;60.30;;;;;;5153559;27;20005;-72
2023/01/04 07:41:45;;;;;;;;;;;14.80;60.30;;;;;;5134978;27;19919;-66
2023/01/04 07:44:11;;;;;;;;;;;14.80;60.40;;;;;;5153632;27;20327;-66
2023/01/04 07:46:37;;;;;;;;;;;14.80;60.40;;;;;;5135297;27;20006;-73
2023/01/04 07:49:03;;;;;;;;;;;14.80;60.40;;;;;;5138454;27;20013;-67
2023/01/04 07:51:29;;;;;;;;;;;14.80;60.40;;;;;;5157539;27;19919;-72
2023/01/04 07:53:55;;;;;;;;;;;14.80;60.40;;;;;;5138965;27;20058;-72
2023/01/04 07:56:20;;;;;;;;;;;14.80;60.40;;;;;;5138663;27;20384;-72
2023/01/04 07:58:46;;;;;;;;;;;14.80;60.50;;;;;;5138921;27;19919;-67
2023/01/04 08:01:13;;;;;;;;;;;14.80;60.50;;;;;;5121140;27;20271;-69
2023/01/04 08:03:39;;;;;;;;;;;14.80;60.50;;;;;;5157139;27;19926;-67
2023/01/04 08:06:05;;;;;;;;;;;14.80;60.50;;;;;;5138372;27;19919;-67
2023/01/04 08:08:31;;;;;;;;;;;14.80;60.60;;;;;;5138484;27;19919;-73
2023/01/04 08:11:01;;;;;;;;;;;14.80;60.60;;;;;;5138853;27;19926;-72
2023/01/04 08:13:27;;;;;;;;;;;14.80;60.60;;;;;;5138047;27;19919;-67
2023/01/04 08:15:53;;;;;;;;;;;14.80;60.70;;;;;;5138528;27;19919;-73
2023/01/04 08:18:18;;;;;;;;;;;14.80;60.80;;;;;;5138260;27;20503;-73
2023/01/04 08:20:44;;;;;;;;;;;14.80;60.80;;;;;;5156650;27;19966;-67
2023/01/04 08:23:09;;;;;;;;;;;14.80;60.80;;;;;;5157002;27;19919;-73
2023/01/04 08:25:35;;;;;;;;;;;14.80;60.80;;;;;;5156941;27;20339;-73
2023/01/04 08:28:01;;;;;;;;;;;14.70;60.80;;;;;;5138143;27;20427;-72
2023/01/04 08:30:26;;;;;;;;;;;14.80;60.80;;;;;;5138496;27;19915;-67
2023/01/04 08:32:52;;;;;;;;;;;14.80;60.90;;;;;;5138042;27;20341;-73
2023/01/04 08:35:18;;;;;;;;;;;14.80;61.00;;;;;;5137845;27;19915;-67
2023/01/04 08:37:44;;;;;;;;;;;14.80;61.00;;;;;;5138068;27;19919;-67
2023/01/04 08:40:10;;;;;;;;;;;14.80;61.10;;;;;;5156355;27;20407;-73
2023/01/04 08:42:35;;;;;;;;;;;14.80;61.10;;;;;;5137938;27;19930;-67
2023/01/04 08:45:01;;;;;;;;;;;14.80;61.10;;;;;;5138170;27;19915;-72
2023/01/04 08:47:27;;;;;;;;;;;14.80;61.10;;;;;;5156414;27;19915;-67
2023/01/04 08:49:53;;;;;;;;;;;14.80;61.20;;;;;;5138035;27;19922;-67
2023/01/04 08:52:18;;;;;;;;;;;14.80;61.20;;;;;;5137528;27;19915;-65
2023/01/04 08:54:44;;;;;;;;;;;14.80;61.20;;;;;;5137785;27;19915;-64
2023/01/04 08:57:09;;;;;;;;;;;14.80;61.30;;;;;;5137489;27;19946;-64
2023/01/04 08:59:35;;;;;;;;;;;14.80;61.30;;;;;;5120206;27;20022;-64
2023/01/04 09:02:00;;;;;;;;;;;14.80;61.40;;;;;;5137215;27;19919;-64
2023/01/04 09:04:26;;;;;;;;;;;14.80;61.40;;;;;;5156339;27;20354;-70
2023/01/04 09:06:51;;;;;;;;;;;14.80;61.50;;;;;;5156005;27;20010;-64
2023/01/04 09:09:17;;;;;;;;;;;14.80;61.50;;;;;;5156066;27;20005;-64
2023/01/04 09:11:42;;;;;;;;;;;14.80;61.50;;;;;;5137816;27;20002;-70
2023/01/04 09:14:09;;;;;;;;;;;14.80;61.60;;;;;;5155942;27;20380;-64
2023/01/04 09:16:35;;;;;;;;;;;14.80;61.60;;;;;;5137111;27;19933;-72
2023/01/04 09:19:01;;;;;;;;;;;14.80;61.70;;;;;;5137586;27;20417;-66
2023/01/04 09:21:26;;;;;;;;;;;14.80;61.70;;;;;;5155649;27;19923;-66
2023/01/04 09:23:52;;;;;;;;;;;14.80;61.70;;;;;;5137387;27;19965;-66
2023/01/04 09:26:21;;;;;;;;;;;14.80;61.70;;;;;;5137060;27;19919;-66
2023/01/04 09:28:46;;;;;;;;;;;14.90;61.80;;;;;;5137397;27;19919;-66
2023/01/04 09:31:13;;;;;;;;;;;14.80;61.90;;;;;;5137187;27;19926;-66
2023/01/04 09:33:39;;;;;;;;;;;14.80;61.90;;;;;;5137270;27;19919;-66
2023/01/04 09:36:05;;;;;;;;;;;14.80;61.90;;;;;;5155486;27;20320;-71
2023/01/04 09:38:31;;;;;;;;;;;14.80;61.90;;;;;;5137093;27;20413;-66
2023/01/04 09:43:47;;;;;;;;;;;14.80;62.00;;;;;;5110369;27;19912;-70
2023/01/04 09:46:20;;;;;;;;;;;14.80;61.90;;;;;;5108836;28;19920;-64
2023/01/04 09:48:46;;;;;;;;;;;14.80;62.00;;;;;;5108946;28;20463;-73
2023/01/04 09:51:15;;;;;;;;;;;14.80;62.00;;;;;;5108750;28;19975;-67
2023/01/04 09:53:44;;;;;;;;;;;14.80;62.10;;;;;;5108866;28;19962;-72
2023/01/04 09:56:28;;;;;;;;;;;14.80;62.10;;;;;;5108694;28;19920;-73
2023/01/04 09:58:53;;;;;;;;;;;14.80;62.10;;;;;;5109193;28;20010;-67
2023/01/04 10:01:21;;;;;;;;;;;14.80;62.10;;;;;;5108778;28;20357;-72
2023/01/04 10:04:06;;;;;;;;;;;14.80;62.30;;;;;;5109903;28;20299;-73
2023/01/04 10:06:33;;;;;;;;;;;14.90;62.30;;;;;;5109688;28;19924;-67
2023/01/04 10:09:01;;;;;;;;;;;14.80;62.30;;;;;;5108899;28;19927;-67
2023/01/04 10:11:46;;;;;;;;;;;14.80;62.40;;;;;;5108470;28;19962;-67
2023/01/04 10:14:32;;;;;;;;;;;14.80;62.40;;;;;;5109475;28;19920;-71
2023/01/04 10:20:04;;;;;;;;;;;14.80;62.50;;;;;;5110357;27;19918;-65
2023/01/04 10:28:00;;;;;;;;;;;14.80;62.50;;;;;;5110312;27;19944;-65
2023/01/04 10:33:10;;;;;;;;;;;14.80;62.70;;;;;;5127163;27;1875092;-64
2023/01/04 10:35:36;;;;;;;;;;;14.80;62.70;;;;;;5174523;27;19922;-64
2023/01/04 10:38:03;;;;;;;;;;;14.80;62.70;;;;;;5174273;27;19971;-65
2023/01/04 10:40:30;;;;;;;;;;;14.80;62.70;;;;;;5193288;27;20306;-65
2023/01/04 10:46:01;;;;;;;;;;;14.80;62.70;;;;;;5127303;27;1871813;-65
2023/01/04 10:51:08;;;;;;;;;;;14.90;62.90;;;;;;5110285;27;19918;-65
2023/01/04 10:53:39;;;;;;;;;;;14.80;62.80;;;;;;5109203;28;19924;-70
2023/01/04 10:56:24;;;;;;;;;;;14.80;63.00;;;;;;5110190;28;20534;-71
2023/01/04 10:58:56;;;;;;;;;;;14.90;63.00;;;;;;5109253;28;19924;-70
2023/01/04 11:01:27;;;;;;;;;;;14.80;63.10;;;;;;5108856;28;19920;-71
2023/01/04 11:03:56;;;;;;;;;;;14.80;63.20;;;;;;5109060;28;19973;-65
2023/01/04 11:09:08;;;;;;;;;;;14.80;63.20;;;;;;5110329;27;19938;-71
2023/01/04 11:11:39;;;;;;;;;;;14.80;63.20;;;;;;5109105;28;20011;-71
2023/01/04 11:14:05;;;;;;;;;;;14.80;63.20;;;;;;5108879;28;19924;-64
2023/01/04 11:16:31;;;;;;;;;;;14.90;63.30;;;;;;5109185;28;19926;-71
2023/01/04 11:18:57;;;;;;;;;;;14.90;63.30;;;;;;5109135;28;19920;-66
2023/01/04 11:21:26;;;;;;;;;;;14.80;63.30;;;;;;5109019;28;19920;-72
2023/01/04 11:23:53;;;;;;;;;;;14.80;63.30;;;;;;5109040;28;19919;-66
2023/01/04 11:26:20;;;;;;;;;;;14.80;63.40;;;;;;5143356;27;19920;-67
2023/01/04 11:28:49;;;;;;;;;;;14.80;63.40;;;;;;5108583;28;20007;-66
2023/01/04 11:31:20;;;;;;;;;;;14.80;63.40;;;;;;5108932;28;20295;-66
2023/01/04 11:33:50;;;;;;;;;;;14.80;63.40;;;;;;5108472;28;19920;-66
2023/01/04 11:39:19;;;;;;;;;;;14.80;63.50;;;;;;5127352;27;1871695;-65
2023/01/04 11:42:04;;;;;;;;;;;14.80;63.50;;;;;;5174516;27;19922;-71
2023/01/04 11:44:32;;;;;;;;;;;14.90;63.70;;;;;;5174552;27;19919;-71
2023/01/04 11:47:18;;;;;;;;;;;14.90;63.80;;;;;;5174367;27;19918;-71
2023/01/04 11:49:44;;;;;;;;;;;14.90;63.70;;;;;;5192958;27;19923;-70
2023/01/04 11:52:30;;;;;;;;;;;14.90;63.70;;;;;;5174206;27;19941;-65
2023/01/04 11:54:56;;;;;;;;;;;14.90;63.70;;;;;;5174292;27;19922;-65
2023/01/04 11:57:21;;;;;;;;;;;14.90;63.80;;;;;;5174045;27;19923;-65
2023/01/04 12:00:07;;;;;;;;;;;14.90;63.80;;;;;;5192851;27;19964;-71
2023/01/04 12:02:33;;;;;;;;;;;14.90;63.90;;;;;;5174322;27;19919;-65
2023/01/04 12:04:58;;;;;;;;;;;14.90;63.90;;;;;;5173948;27;19925;-65
2023/01/04 12:07:27;;;;;;;;;;;14.90;63.90;;;;;;5192703;27;19922;-72
2023/01/04 12:09:53;;;;;;;;;;;14.90;63.90;;;;;;5174257;27;20113;-65
2023/01/04 12:12:19;;;;;;;;;;;14.90;64.00;;;;;;5173795;27;20006;-65
2023/01/04 12:14:47;;;;;;;;;;;14.90;63.90;;;;;;5173836;27;20005;-71
2023/01/04 12:17:17;;;;;;;;;;;14.80;64.00;;;;;;5173792;27;19922;-71
2023/01/04 12:19:43;;;;;;;;;;;14.90;64.10;;;;;;5192531;27;19966;-65
2023/01/04 12:22:29;;;;;;;;;;;14.90;64.20;;;;;;5192413;27;19934;-65
2023/01/04 12:24:55;;;;;;;;;;;14.90;64.20;;;;;;5173557;27;19922;-65
2023/01/04 12:27:21;;;;;;;;;;;14.90;64.20;;;;;;5192283;27;19995;-65
2023/01/04 12:35:34;;;;;;;;;;;14.90;64.20;;;;;;5110320;27;19918;-71
2023/01/04 12:37:59;;;;;;;;;;;14.90;64.20;;;;;;5110066;28;20319;-71
2023/01/04 12:40:46;;;;;;;;;;;14.90;64.30;;;;;;5108899;28;19973;-71
2023/01/04 12:49:02;;;;;;;;;;;14.90;64.40;;;;;;5089982;28;19935;-65
2023/01/04 12:49:21;;;;;;;;;;;14.90;64.40;;;;;;5089756;28;20299;-65
2023/01/04 12:51:46;;;;;;;;;;;14.90;64.50;;;;;;5088319;28;19927;-65
2023/01/04 12:54:32;;;;;;;;;;;14.90;64.50;;;;;;5089972;28;19920;-66
2023/01/04 12:57:17;;;;;;;;;;;14.90;64.50;;;;;;5088267;28;19924;-70
2023/01/04 13:00:03;;;;;;;;;;;14.90;64.60;;;;;;5088487;28;19985;-71
2023/01/04 13:02:32;;;;;;;;;;;14.90;64.70;;;;;;5088208;28;19920;-71
2023/01/04 13:05:03;;;;;;;;;;;14.90;64.60;;;;;;5088279;28;20007;-65
2023/01/04 13:07:40;;;;;;;;;;;14.90;64.60;;;;;;5089475;28;19920;-65
2023/01/04 13:10:25;;;;;;;;;;;14.90;64.70;;;;;;5089657;28;19921;-65
2023/01/04 13:15:38;;;;;;;;;;;14.90;64.70;;;;;;5089889;28;19912;-65
2023/01/04 13:18:15;;;;;;;;;;;14.90;64.80;;;;;;5088365;28;19920;-66
2023/01/04 13:20:41;;;;;;;;;;;14.90;64.80;;;;;;5088815;28;19928;-71
2023/01/04 13:23:10;;;;;;;;;;;14.90;64.80;;;;;;5089512;28;19994;-66
2023/01/04 13:25:35;;;;;;;;;;;14.90;64.80;;;;;;5088489;28;19948;-66
2023/01/04 13:28:02;;;;;;;;;;;14.90;64.70;;;;;;5088703;28;19959;-65
2023/01/04 13:35:59;;;;;;;;;;;14.90;64.80;;;;;;5089652;28;19915;-65
2023/01/04 13:38:25;;;;;;;;;;;14.90;64.80;;;;;;5089967;28;20375;-65
2023/01/04 13:40:50;;;;;;;;;;;14.90;64.80;;;;;;5089797;28;19952;-71
2023/01/04 13:46:06;;;;;;;;;;;14.90;64.90;;;;;;5089874;28;19919;-65
2023/01/04 13:48:36;;;;;;;;;;;15.00;65.00;;;;;;5088694;28;19920;-71
2023/01/04 13:51:03;;;;;;;;;;;14.90;65.00;;;;;;5088509;28;20011;-66
2023/01/04 13:53:30;;;;;;;;;;;14.90;64.90;;;;;;5088518;28;19920;-72
2023/01/04 13:55:57;;;;;;;;;;;14.90;65.00;;;;;;5089491;28;19924;-66
2023/01/04 13:58:23;;;;;;;;;;;14.90;64.90;;;;;;5088552;28;19920;-72
2023/01/04 14:00:52;;;;;;;;;;;14.90;65.00;;;;;;5088119;28;19920;-66
2023/01/04 14:03:38;;;;;;;;;;;14.90;64.90;;;;;;5088487;28;19920;-66
2023/01/04 14:06:11;;;;;;;;;;;14.90;64.90;;;;;;5088237;28;20321;-66
2023/01/04 14:08:46;;;;;;;;;;;14.90;64.90;;;;;;5089677;28;19924;-73
2023/01/04 14:11:57;;;;;;;;;;;14.90;65.00;;;;;;5089680;28;20276;-66
2023/01/04 14:14:01;;;;;;;;;;;15.00;65.00;;;;;;5089145;28;19927;-66
2023/01/04 14:16:27;;;;;;;;;;;14.90;65.00;;;;;;5089800;28;20256;-67
2023/01/04 14:18:52;;;;;;;;;;;14.90;64.90;;;;;;5088316;28;19916;-66
2023/01/04 14:21:18;;;;;;;;;;;14.90;65.00;;;;;;5087886;28;20386;-66
2023/01/04 14:23:43;;;;;;;;;;;15.00;65.00;;;;;;5088099;28;19924;-73
2023/01/04 14:26:29;;;;;;;;;;;14.90;65.00;;;;;;5088065;28;19917;-66
2023/01/04 14:28:54;;;;;;;;;;;15.00;65.00;;;;;;5089149;28;19983;-67
2023/01/04 14:31:20;;;;;;;;;;;15.00;65.00;;;;;;5087863;28;19924;-67
2023/01/04 14:33:47;;;;;;;;;;;15.00;65.00;;;;;;5087602;28;19921;-66
2023/01/04 14:39:07;;;;;;;;;;;15.00;65.00;;;;;;5089782;28;19932;-72
2023/01/04 14:41:37;;;;;;;;;;;14.90;64.90;;;;;;5088727;28;19920;-65
2023/01/04 14:46:45;;;;;;;;;;;14.90;64.90;;;;;;5109657;27;19940;-65
2023/01/04 14:49:11;;;;;;;;;;;14.90;64.80;;;;;;5108872;28;19916;-66
2023/01/04 14:51:41;;;;;;;;;;;14.90;64.90;;;;;;5108848;28;20019;-71
2023/01/04 14:54:06;;;;;;;;;;;14.90;65.00;;;;;;5108953;28;19916;-65
2023/01/04 14:56:32;;;;;;;;;;;15.00;65.00;;;;;;5109042;28;19916;-66
2023/01/04 14:58:58;;;;;;;;;;;14.90;64.90;;;;;;5108641;28;19961;-71
2023/01/04 15:01:24;;;;;;;;;;;14.90;64.90;;;;;;5110082;28;19920;-66
2023/01/04 15:03:50;;;;;;;;;;;15.00;65.00;;;;;;5108736;28;20363;-66
2023/01/04 15:06:15;;;;;;;;;;;14.90;65.00;;;;;;5108469;28;20125;-66
2023/01/04 15:08:41;;;;;;;;;;;15.00;65.00;;;;;;5108677;28;20421;-66
2023/01/04 15:11:06;;;;;;;;;;;14.90;64.90;;;;;;5110099;28;19916;-66
2023/01/04 15:13:35;;;;;;;;;;;15.00;65.00;;;;;;5109846;28;19963;-65
2023/01/04 15:16:00;;;;;;;;;;;14.90;65.00;;;;;;5108691;28;19927;-66
2023/01/04 15:18:26;;;;;;;;;;;15.00;65.10;;;;;;5108324;28;20283;-66
2023/01/04 15:20:52;;;;;;;;;;;14.90;65.00;;;;;;5108374;28;19920;-66
2023/01/04 15:23:17;;;;;;;;;;;15.00;65.10;;;;;;5108559;28;19920;-66
2023/01/04 15:25:43;;;;;;;;;;;14.90;65.00;;;;;;5109562;28;20264;-72
2023/01/04 15:28:09;;;;;;;;;;;14.90;65.00;;;;;;5108516;28;19920;-66
2023/01/04 15:30:34;;;;;;;;;;;15.00;65.10;;;;;;5108548;28;19932;-65
2023/01/04 15:33:00;;;;;;;;;;;14.90;65.00;;;;;;5108445;28;20390;-65
2023/01/04 15:35:25;;;;;;;;;;;14.90;65.00;;;;;;5109283;28;19920;-66
2023/01/04 15:37:51;;;;;;;;;;;14.90;65.00;;;;;;5108084;28;19924;-69
2023/01/04 15:40:17;;;;;;;;;;;14.90;65.00;;;;;;5109479;28;20424;-72
2023/01/04 15:42:58;;;;;;;;;;;14.90;65.00;;;;;;5108303;28;19920;-65
2023/01/04 15:45:25;;;;;;;;;;;14.90;65.10;;;;;;5107590;28;20008;-66
2023/01/04 15:47:50;;;;;;;;;;;14.90;65.00;;;;;;5107843;28;19920;-65
2023/01/04 15:50:17;;;;;;;;;;;14.90;65.00;;;;;;5108106;28;19989;-72
2023/01/04 15:52:42;;;;;;;;;;;14.90;65.00;;;;;;5108974;28;20010;-65
2023/01/04 15:55:08;;;;;;;;;;;14.90;65.00;;;;;;5109033;28;19962;-65
2023/01/04 15:57:33;;;;;;;;;;;14.90;65.00;;;;;;5096653;28;19985;-66
2023/01/04 15:59:59;;;;;;;;;;;14.90;65.00;;;;;;5094171;28;19920;-70
2023/01/04 16:02:25;;;;;;;;;;;14.90;65.00;;;;;;5093996;28;19970;-66
2023/01/04 16:04:50;;;;;;;;;;;14.90;65.10;;;;;;5094433;28;19977;-66